createdAt,value
2023-05-14T00:00:55.209Z,91.75
2023-05-14T00:01:55.186Z,91.65
2023-05-14T00:02:55.447Z,91.65
2023-05-14T00:03:55.246Z,91.75
2023-05-14T00:04:55.161Z,91.96
2023-05-14T00:05:55.132Z,91.96
2023-05-14T00:06:55.102Z,91.96
2023-05-14T00:07:55.101Z,91.86
2023-05-14T00:08:55.072Z,91.86
2023-05-14T00:09:55.081Z,92.06
2023-05-14T00:10:55.056Z,92.16
2023-05-14T00:11:55.034Z,92.27
2023-05-14T00:12:55.020Z,92.06
2023-05-14T00:13:55.009Z,92.27
2023-05-14T00:14:55.013Z,92.51
2023-05-14T00:15:55.069Z,92.57
2023-05-14T00:16:54.979Z,92.57
2023-05-14T00:17:55.130Z,92.47
2023-05-14T00:18:55.098Z,92.10
2023-05-14T00:19:54.944Z,91.69
2023-05-14T00:20:55.054Z,91.18
2023-05-14T00:21:54.896Z,90.97
2023-05-14T00:22:54.891Z,91.28
2023-05-14T00:23:54.892Z,91.49
2023-05-14T00:24:54.872Z,91.28
2023-05-14T00:25:54.847Z,91.08
2023-05-14T00:26:54.836Z,90.87
2023-05-14T00:27:54.817Z,91.08
2023-05-14T00:28:54.848Z,91.18
2023-05-14T00:29:54.792Z,91.42
2023-05-14T00:30:54.847Z,91.74
2023-05-14T00:31:54.838Z,91.84
2023-05-14T00:32:54.834Z,92.10
2023-05-14T00:33:54.759Z,92.31
2023-05-14T00:34:54.720Z,92.61
2023-05-14T00:35:54.716Z,92.51
2023-05-14T00:36:54.707Z,92.51
2023-05-14T00:37:54.684Z,92.51
2023-05-14T00:38:54.704Z,92.72
2023-05-14T00:39:54.654Z,92.21
2023-05-14T00:40:54.658Z,92.14
2023-05-14T00:41:54.639Z,92.35
2023-05-14T00:42:54.647Z,92.46
2023-05-14T00:43:54.627Z,92.55
2023-05-14T00:44:54.587Z,92.76
2023-05-14T00:45:54.592Z,93.02
2023-05-14T00:46:54.590Z,93.13
2023-05-14T00:47:54.599Z,93.23
2023-05-14T00:48:54.539Z,93.23
2023-05-14T00:49:54.526Z,93.13
2023-05-14T00:50:54.519Z,93.02
2023-05-14T00:51:54.497Z,93.13
2023-05-14T00:52:54.539Z,93.13
2023-05-14T00:53:54.472Z,93.13
2023-05-14T00:54:54.465Z,93.02
2023-05-14T00:55:54.508Z,92.82
2023-05-14T00:56:54.444Z,92.82
2023-05-14T00:57:54.464Z,93.02
2023-05-14T00:58:54.431Z,92.82
2023-05-14T00:59:54.393Z,92.51
2023-05-14T01:00:54.434Z,92.41
2023-05-14T01:01:54.368Z,92.21
2023-05-14T01:02:54.436Z,92.21
2023-05-14T01:03:54.394Z,92.21
2023-05-14T01:04:54.317Z,92.31
2023-05-14T01:05:54.299Z,92.41
2023-05-14T01:06:54.317Z,92.14
2023-05-14T01:07:54.287Z,91.84
2023-05-14T01:08:54.264Z,91.74
2023-05-14T01:09:54.252Z,92.04
2023-05-14T01:10:54.254Z,92.35
2023-05-14T01:11:54.243Z,92.55
2023-05-14T01:12:54.237Z,92.76
2023-05-14T01:13:54.200Z,92.86
2023-05-14T01:14:54.225Z,93.07
2023-05-14T01:15:54.187Z,93.48
2023-05-14T01:16:54.215Z,93.89
2023-05-14T01:17:54.192Z,94.20
2023-05-14T01:18:54.194Z,94.40
2023-05-14T01:19:54.114Z,94.56
2023-05-14T01:20:54.119Z,94.67
2023-05-14T01:21:54.118Z,94.77
2023-05-14T01:22:54.077Z,94.67
2023-05-14T01:23:54.048Z,94.81
2023-05-14T01:24:54.062Z,94.92
2023-05-14T01:25:54.055Z,94.92
2023-05-14T01:26:54.024Z,94.92
2023-05-14T01:27:54.052Z,95.02
2023-05-14T01:28:54.001Z,95.23
2023-05-14T01:29:54.006Z,95.53
2023-05-14T01:30:53.984Z,95.49
2023-05-14T01:31:54.013Z,95.59
2023-05-14T01:32:54.008Z,95.69
2023-05-14T01:33:53.919Z,95.79
2023-05-14T01:34:53.915Z,96.00
2023-05-14T01:35:53.936Z,96.00
2023-05-14T01:36:53.958Z,96.00
2023-05-14T01:37:53.877Z,96.20
2023-05-14T01:38:53.854Z,96.31
2023-05-14T01:39:53.847Z,96.31
2023-05-14T01:40:53.853Z,96.41
2023-05-14T01:41:53.812Z,96.26
2023-05-14T01:42:53.840Z,96.16
2023-05-14T01:43:53.791Z,96.26
2023-05-14T01:44:53.822Z,96.26
2023-05-14T01:45:53.902Z,96.26
2023-05-14T01:46:53.751Z,96.16
2023-05-14T01:47:53.896Z,96.16
2023-05-14T01:48:53.721Z,96.06
2023-05-14T01:49:53.722Z,95.95
2023-05-14T01:50:53.696Z,95.86
2023-05-14T01:51:53.676Z,95.86
2023-05-14T01:52:53.662Z,95.75
2023-05-14T01:53:53.649Z,95.65
2023-05-14T01:54:53.653Z,95.61
2023-05-14T01:55:53.630Z,95.61
2023-05-14T01:56:53.637Z,95.70
2023-05-14T01:57:53.591Z,95.91
2023-05-14T01:58:53.581Z,95.81
2023-05-14T01:59:53.582Z,95.70
2023-05-14T02:00:53.559Z,95.40
2023-05-14T02:01:53.676Z,95.20
2023-05-14T02:02:53.613Z,94.78
2023-05-14T02:03:53.576Z,94.78
2023-05-14T02:04:53.518Z,94.78
2023-05-14T02:05:53.483Z,95.09
2023-05-14T02:06:53.472Z,95.20
2023-05-14T02:07:53.444Z,95.50
2023-05-14T02:08:53.461Z,95.61
2023-05-14T02:09:53.447Z,95.70
2023-05-14T02:10:53.436Z,95.81
2023-05-14T02:11:53.396Z,95.91
2023-05-14T02:12:53.411Z,96.01
2023-05-14T02:13:53.396Z,96.12
2023-05-14T02:14:53.362Z,96.12
2023-05-14T02:15:53.377Z,96.12
2023-05-14T02:16:53.342Z,96.12
2023-05-14T02:17:53.384Z,96.01
2023-05-14T02:18:53.379Z,95.91
2023-05-14T02:19:53.294Z,95.81
2023-05-14T02:20:53.291Z,95.70
2023-05-14T02:21:53.279Z,95.44
2023-05-14T02:22:53.296Z,95.34
2023-05-14T02:23:53.255Z,95.54
2023-05-14T02:24:53.243Z,95.75
2023-05-14T02:25:53.209Z,95.86
2023-05-14T02:26:53.209Z,96.06
2023-05-14T02:27:53.254Z,96.12
2023-05-14T02:28:53.195Z,96.22
2023-05-14T02:29:53.179Z,96.32
2023-05-14T02:30:53.183Z,96.37
2023-05-14T02:31:53.236Z,96.26
2023-05-14T02:32:53.231Z,96.26
2023-05-14T02:33:53.112Z,96.26
2023-05-14T02:34:53.103Z,96.37
2023-05-14T02:35:53.078Z,96.42
2023-05-14T02:36:53.079Z,96.47
2023-05-14T02:37:53.048Z,96.57
2023-05-14T02:38:53.037Z,96.53
2023-05-14T02:39:53.018Z,96.53
2023-05-14T02:40:53.074Z,96.47
2023-05-14T02:41:53.027Z,96.37
2023-05-14T02:42:52.993Z,96.37
2023-05-14T02:43:52.972Z,96.37
2023-05-14T02:44:52.964Z,96.26
2023-05-14T02:45:52.952Z,96.16
2023-05-14T02:46:52.974Z,96.26
2023-05-14T02:47:52.987Z,96.37
2023-05-14T02:48:52.920Z,96.37
2023-05-14T02:49:52.896Z,96.57
2023-05-14T02:50:52.905Z,96.67
2023-05-14T02:51:52.892Z,96.78
2023-05-14T02:52:52.858Z,96.88
2023-05-14T02:53:52.852Z,96.98
2023-05-14T02:54:52.829Z,97.08
2023-05-14T02:55:52.820Z,97.08
2023-05-14T02:56:52.830Z,96.98
2023-05-14T02:57:52.785Z,96.78
2023-05-14T02:58:52.789Z,96.78
2023-05-14T02:59:52.757Z,96.88
2023-05-14T03:00:52.783Z,96.88
2023-05-14T03:01:52.810Z,96.78
2023-05-14T03:02:52.870Z,96.78
2023-05-14T03:03:52.701Z,96.67
2023-05-14T03:04:52.710Z,96.57
2023-05-14T03:05:52.687Z,96.47
2023-05-14T03:06:52.690Z,96.47
2023-05-14T03:07:52.643Z,96.47
2023-05-14T03:08:52.640Z,96.57
2023-05-14T03:09:52.622Z,96.57
2023-05-14T03:10:52.632Z,96.57
2023-05-14T03:11:52.611Z,96.57
2023-05-14T03:12:52.594Z,96.57
2023-05-14T03:13:52.568Z,96.57
2023-05-14T03:14:52.558Z,96.57
2023-05-14T03:15:52.557Z,96.57
2023-05-14T03:16:52.610Z,96.57
2023-05-14T03:17:52.548Z,96.47
2023-05-14T03:18:52.526Z,96.47
2023-05-14T03:19:52.487Z,96.47
2023-05-14T03:20:52.507Z,96.57
2023-05-14T03:21:52.456Z,96.57
2023-05-14T03:22:52.450Z,96.57
2023-05-14T03:23:52.439Z,96.37
2023-05-14T03:24:52.437Z,96.26
2023-05-14T03:25:52.436Z,96.37
2023-05-14T03:26:52.404Z,96.37
2023-05-14T03:27:52.409Z,96.47
2023-05-14T03:28:52.372Z,96.31
2023-05-14T03:29:52.383Z,96.51
2023-05-14T03:30:52.388Z,96.72
2023-05-14T03:31:52.355Z,96.92
2023-05-14T03:32:52.362Z,97.03
2023-05-14T03:33:52.300Z,97.13
2023-05-14T03:34:52.316Z,97.03
2023-05-14T03:35:52.266Z,97.03
2023-05-14T03:36:52.261Z,96.92
2023-05-14T03:37:52.239Z,96.82
2023-05-14T03:38:52.250Z,96.92
2023-05-14T03:39:52.241Z,97.03
2023-05-14T03:40:52.212Z,97.13
2023-05-14T03:41:52.232Z,97.03
2023-05-14T03:42:52.180Z,96.92
2023-05-14T03:43:52.181Z,96.92
2023-05-14T03:44:52.170Z,96.82
2023-05-14T03:45:52.154Z,96.82
2023-05-14T03:46:52.128Z,96.72
2023-05-14T03:47:52.195Z,96.82
2023-05-14T03:48:52.243Z,96.88
2023-05-14T03:49:52.092Z,96.92
2023-05-14T03:50:52.108Z,96.82
2023-05-14T03:51:52.129Z,96.72
2023-05-14T03:52:52.161Z,96.72
2023-05-14T03:53:52.053Z,96.82
2023-05-14T03:54:52.025Z,96.78
2023-05-14T03:55:52.000Z,96.78
2023-05-14T03:56:51.988Z,96.78
2023-05-14T03:57:52.003Z,96.67
2023-05-14T03:58:52.184Z,96.57
2023-05-14T03:59:51.955Z,96.57
2023-05-14T04:00:51.960Z,96.67
2023-05-14T04:01:51.928Z,96.57
2023-05-14T04:02:52.036Z,96.47
2023-05-14T04:03:52.179Z,96.47
2023-05-14T04:04:52.217Z,96.47
2023-05-14T04:05:52.429Z,96.47
2023-05-14T04:06:51.870Z,96.47
2023-05-14T04:07:51.861Z,96.57
2023-05-14T04:08:51.836Z,96.51
2023-05-14T04:09:51.832Z,96.62
2023-05-14T04:10:52.082Z,96.51
2023-05-14T04:11:51.818Z,96.41
2023-05-14T04:12:51.791Z,96.31
2023-05-14T04:13:51.768Z,96.20
2023-05-14T04:14:52.010Z,96.31
2023-05-14T04:15:51.843Z,96.51
2023-05-14T04:16:51.758Z,96.82
2023-05-14T04:17:51.736Z,97.23
2023-05-14T04:18:51.751Z,97.54
2023-05-14T04:19:51.940Z,97.60
2023-05-14T04:20:51.668Z,97.33
2023-05-14T04:21:51.755Z,97.03
2023-05-14T04:22:51.652Z,96.82
2023-05-14T04:23:51.653Z,96.82
2023-05-14T04:24:51.629Z,96.62
2023-05-14T04:25:51.615Z,96.82
2023-05-14T04:26:51.665Z,96.41
2023-05-14T04:27:51.639Z,96.41
2023-05-14T04:28:51.560Z,96.41
2023-05-14T04:29:51.543Z,96.51
2023-05-14T04:30:51.697Z,96.41
2023-05-14T04:31:51.603Z,96.41
2023-05-14T04:32:51.557Z,96.62
2023-05-14T04:33:51.533Z,96.72
2023-05-14T04:34:51.553Z,96.72
2023-05-14T04:35:51.512Z,96.62
2023-05-14T04:36:51.474Z,96.72
2023-05-14T04:37:51.435Z,96.82
2023-05-14T04:38:51.434Z,96.72
2023-05-14T04:39:51.439Z,96.62
2023-05-14T04:40:51.462Z,96.72
2023-05-14T04:41:51.404Z,96.72
2023-05-14T04:42:51.472Z,96.62
2023-05-14T04:43:51.573Z,96.62
2023-05-14T04:44:51.517Z,96.72
2023-05-14T04:45:51.358Z,96.72
2023-05-14T04:46:51.330Z,96.51
2023-05-14T04:47:51.427Z,96.41
2023-05-14T04:48:51.285Z,96.31
2023-05-14T04:49:51.290Z,96.10
2023-05-14T04:50:51.291Z,95.79
2023-05-14T04:51:51.246Z,95.49
2023-05-14T04:52:51.231Z,95.28
2023-05-14T04:53:51.218Z,95.28
2023-05-14T04:54:51.295Z,95.14
2023-05-14T04:55:51.192Z,95.07
2023-05-14T04:56:51.197Z,95.18
2023-05-14T04:57:51.152Z,95.59
2023-05-14T04:58:51.152Z,95.69
2023-05-14T04:59:51.149Z,95.69
2023-05-14T05:00:51.190Z,95.90
2023-05-14T05:01:51.114Z,96.20
2023-05-14T05:02:51.164Z,96.31
2023-05-14T05:03:51.124Z,96.31
2023-05-14T05:04:51.081Z,96.20
2023-05-14T05:05:51.059Z,95.79
2023-05-14T05:06:51.066Z,95.59
2023-05-14T05:07:51.037Z,95.59
2023-05-14T05:08:51.040Z,95.49
2023-05-14T05:09:51.027Z,95.59
2023-05-14T05:10:50.994Z,95.69
2023-05-14T05:11:50.980Z,95.69
2023-05-14T05:12:51.008Z,95.59
2023-05-14T05:13:50.966Z,95.49
2023-05-14T05:14:50.937Z,95.59
2023-05-14T05:15:50.986Z,95.59
2023-05-14T05:16:50.915Z,95.69
2023-05-14T05:17:51.035Z,95.69
2023-05-14T05:18:50.951Z,95.69
2023-05-14T05:19:50.867Z,95.90
2023-05-14T05:20:50.860Z,96.10
2023-05-14T05:21:50.844Z,96.41
2023-05-14T05:22:50.842Z,96.72
2023-05-14T05:23:50.834Z,96.82
2023-05-14T05:24:50.811Z,96.62
2023-05-14T05:25:50.786Z,96.62
2023-05-14T05:26:50.783Z,96.72
2023-05-14T05:27:50.762Z,96.72
2023-05-14T05:28:50.793Z,96.51
2023-05-14T05:29:50.743Z,96.31
2023-05-14T05:30:50.742Z,96.31
2023-05-14T05:31:50.762Z,96.41
2023-05-14T05:32:50.776Z,96.62
2023-05-14T05:33:50.702Z,96.82
2023-05-14T05:34:50.664Z,96.92
2023-05-14T05:35:50.656Z,97.03
2023-05-14T05:36:50.686Z,96.82
2023-05-14T05:37:50.646Z,96.51
2023-05-14T05:38:50.618Z,96.20
2023-05-14T05:39:50.610Z,96.10
2023-05-14T05:40:50.630Z,95.90
2023-05-14T05:41:50.589Z,95.65
2023-05-14T05:42:50.576Z,95.34
2023-05-14T05:43:50.550Z,94.93
2023-05-14T05:44:50.533Z,94.93
2023-05-14T05:45:50.526Z,95.03
2023-05-14T05:46:50.607Z,95.14
2023-05-14T05:47:50.588Z,94.83
2023-05-14T05:48:50.480Z,94.83
2023-05-14T05:49:50.474Z,94.83
2023-05-14T05:50:50.452Z,94.83
2023-05-14T05:51:50.465Z,94.93
2023-05-14T05:52:50.425Z,95.03
2023-05-14T05:53:50.419Z,95.24
2023-05-14T05:54:50.517Z,95.65
2023-05-14T05:55:50.391Z,95.86
2023-05-14T05:56:50.386Z,95.95
2023-05-14T05:57:50.374Z,95.44
2023-05-14T05:58:50.355Z,95.44
2023-05-14T05:59:50.334Z,95.54
2023-05-14T06:00:57.637Z,95.44
2023-05-14T06:01:50.365Z,95.20
2023-05-14T06:02:50.325Z,94.99
2023-05-14T06:03:50.283Z,94.58
2023-05-14T06:04:50.341Z,94.27
2023-05-14T06:05:50.303Z,94.07
2023-05-14T06:06:50.251Z,93.90
2023-05-14T06:07:50.243Z,93.80
2023-05-14T06:08:50.230Z,93.90
2023-05-14T06:09:50.202Z,94.01
2023-05-14T06:10:50.214Z,94.21
2023-05-14T06:11:50.176Z,94.52
2023-05-14T06:12:50.157Z,94.52
2023-05-14T06:13:50.192Z,94.42
2023-05-14T06:14:50.145Z,94.32
2023-05-14T06:15:50.126Z,94.62
2023-05-14T06:16:50.169Z,94.93
2023-05-14T06:17:50.132Z,95.14
2023-05-14T06:18:50.106Z,95.50
2023-05-14T06:19:50.105Z,95.91
2023-05-14T06:20:50.069Z,95.81
2023-05-14T06:21:50.052Z,95.50
2023-05-14T06:22:50.030Z,95.20
2023-05-14T06:23:50.051Z,95.29
2023-05-14T06:24:50.030Z,95.29
2023-05-14T06:25:50.760Z,95.40
2023-05-14T06:26:49.979Z,95.56
2023-05-14T06:27:49.966Z,95.56
2023-05-14T06:28:49.945Z,95.25
2023-05-14T06:29:49.965Z,94.64
2023-05-14T06:30:49.921Z,94.23
2023-05-14T06:31:49.963Z,94.23
2023-05-14T06:32:49.952Z,94.33
2023-05-14T06:33:49.906Z,94.64
2023-05-14T06:34:49.906Z,94.70
2023-05-14T06:35:49.860Z,94.59
2023-05-14T06:36:49.865Z,94.59
2023-05-14T06:37:49.829Z,94.49
2023-05-14T06:38:49.835Z,94.39
2023-05-14T06:39:49.934Z,94.04
2023-05-14T06:40:49.792Z,93.93
2023-05-14T06:41:49.768Z,94.04
2023-05-14T06:42:49.754Z,94.04
2023-05-14T06:43:49.751Z,93.93
2023-05-14T06:44:49.732Z,93.84
2023-05-14T06:45:49.721Z,93.84
2023-05-14T06:46:49.722Z,93.79
2023-05-14T06:47:49.731Z,93.38
2023-05-14T06:48:49.742Z,93.18
2023-05-14T06:49:49.662Z,92.77
2023-05-14T06:50:49.680Z,92.56
2023-05-14T06:51:49.652Z,92.25
2023-05-14T06:52:49.636Z,91.74
2023-05-14T06:53:49.640Z,91.64
2023-05-14T06:54:49.696Z,91.95
2023-05-14T06:55:49.583Z,92.25
2023-05-14T06:56:49.574Z,92.56
2023-05-14T06:57:49.574Z,93.07
2023-05-14T06:58:49.533Z,93.07
2023-05-14T06:59:50.237Z,92.77
2023-05-14T07:00:49.509Z,92.56
2023-05-14T07:01:49.535Z,92.62
2023-05-14T07:02:49.560Z,92.72
2023-05-14T07:03:49.526Z,91.91
2023-05-14T07:04:49.491Z,91.60
2023-05-14T07:05:49.482Z,91.66
2023-05-14T07:06:49.436Z,91.96
2023-05-14T07:07:49.445Z,92.07
2023-05-14T07:08:50.448Z,92.27
2023-05-14T07:09:49.400Z,92.13
2023-05-14T07:10:49.388Z,92.02
2023-05-14T07:11:49.391Z,92.13
2023-05-14T07:12:49.394Z,92.02
2023-05-14T07:13:49.351Z,92.02
2023-05-14T07:14:49.319Z,91.98
2023-05-14T07:15:49.334Z,91.98
2023-05-14T07:16:49.422Z,91.88
2023-05-14T07:17:49.390Z,91.88
2023-05-14T07:18:49.341Z,92.04
2023-05-14T07:19:49.277Z,91.83
2023-05-14T07:20:49.303Z,91.53
2023-05-14T07:21:49.272Z,91.02
2023-05-14T07:22:49.220Z,90.92
2023-05-14T07:23:49.214Z,90.25
2023-05-14T07:24:49.193Z,90.14
2023-05-14T07:25:49.193Z,90.25
2023-05-14T07:26:49.191Z,90.66
2023-05-14T07:27:49.160Z,90.81
2023-05-14T07:28:49.151Z,89.84
2023-05-14T07:29:49.276Z,89.49
2023-05-14T07:30:49.217Z,89.59
2023-05-14T07:31:49.254Z,90.31
2023-05-14T07:32:49.271Z,90.31
2023-05-14T07:33:49.096Z,90.41
2023-05-14T07:34:49.581Z,90.61
2023-05-14T07:35:49.185Z,90.41
2023-05-14T07:36:50.110Z,89.90
2023-05-14T07:37:49.405Z,89.59
2023-05-14T07:38:49.181Z,89.49
2023-05-14T07:39:49.556Z,89.39
2023-05-14T07:40:49.813Z,89.28
2023-05-14T07:41:49.272Z,89.12
2023-05-14T07:42:49.079Z,89.43
2023-05-14T07:43:49.065Z,89.84
2023-05-14T07:44:48.982Z,90.31
2023-05-14T07:45:49.115Z,90.81
2023-05-14T07:46:49.095Z,91.22
2023-05-14T07:47:49.022Z,91.22
2023-05-14T07:48:48.916Z,91.33
2023-05-14T07:49:48.873Z,91.18
2023-05-14T07:50:48.851Z,90.88
2023-05-14T07:51:48.825Z,90.67
2023-05-14T07:52:48.808Z,90.67
2023-05-14T07:53:48.838Z,90.53
2023-05-14T07:54:50.587Z,90.12
2023-05-14T07:55:48.782Z,89.61
2023-05-14T07:56:48.792Z,89.30
2023-05-14T07:57:48.755Z,88.59
2023-05-14T07:58:48.854Z,88.39
2023-05-14T07:59:48.742Z,88.49
2023-05-14T08:00:48.702Z,88.90
2023-05-14T08:01:48.770Z,89.06
2023-05-14T08:02:48.910Z,88.96
2023-05-14T08:03:48.814Z,88.85
2023-05-14T08:04:48.797Z,88.92
2023-05-14T08:05:49.409Z,89.12
2023-05-14T08:06:48.682Z,89.22
2023-05-14T08:07:48.621Z,89.32
2023-05-14T08:08:48.751Z,89.01
2023-05-14T08:09:48.581Z,88.77
2023-05-14T08:10:48.596Z,88.98
2023-05-14T08:11:48.563Z,88.77
2023-05-14T08:12:48.601Z,88.67
2023-05-14T08:13:48.545Z,88.57
2023-05-14T08:14:48.521Z,88.26
2023-05-14T08:15:48.517Z,88.12
2023-05-14T08:16:48.578Z,88.12
2023-05-14T08:17:48.578Z,88.02
2023-05-14T08:18:48.496Z,88.02
2023-05-14T08:19:48.481Z,88.08
2023-05-14T08:20:48.443Z,87.87
2023-05-14T08:21:48.426Z,87.77
2023-05-14T08:22:48.437Z,87.67
2023-05-14T08:23:48.423Z,87.53
2023-05-14T08:24:48.397Z,87.43
2023-05-14T08:25:48.385Z,87.02
2023-05-14T08:26:48.373Z,86.82
2023-05-14T08:27:48.369Z,86.71
2023-05-14T08:28:48.338Z,86.27
2023-05-14T08:29:48.342Z,86.47
2023-05-14T08:30:48.350Z,86.47
2023-05-14T08:31:48.297Z,86.37
2023-05-14T08:32:48.324Z,87.14
2023-05-14T08:33:48.265Z,87.65
2023-05-14T08:34:48.241Z,86.63
2023-05-14T08:35:48.231Z,86.08
2023-05-14T08:36:48.233Z,85.88
2023-05-14T08:37:48.206Z,85.88
2023-05-14T08:38:48.199Z,86.08
2023-05-14T08:39:48.191Z,85.27
2023-05-14T08:40:48.163Z,85.38
2023-05-14T08:41:48.172Z,85.84
2023-05-14T08:42:48.149Z,86.15
2023-05-14T08:43:48.123Z,86.55
2023-05-14T08:44:48.118Z,86.65
2023-05-14T08:45:48.153Z,85.64
2023-05-14T08:46:48.114Z,84.22
2023-05-14T08:47:48.115Z,83.71
2023-05-14T08:48:48.077Z,83.10
2023-05-14T08:49:48.091Z,82.96
2023-05-14T08:50:48.430Z,84.38
2023-05-14T08:51:48.038Z,85.36
2023-05-14T08:52:48.011Z,84.75
2023-05-14T08:53:48.006Z,83.83
2023-05-14T08:54:47.980Z,84.04
2023-05-14T08:55:47.976Z,82.42
2023-05-14T08:56:49.363Z,82.62
2023-05-14T08:57:47.960Z,83.09
2023-05-14T08:58:47.933Z,82.89
2023-05-14T08:59:48.055Z,82.78
2023-05-14T09:00:47.927Z,81.52
2023-05-14T09:01:47.951Z,81.02
2023-05-14T09:02:47.995Z,80.72
2023-05-14T09:03:47.933Z,80.21
2023-05-14T09:04:47.868Z,79.77
2023-05-14T09:05:47.872Z,79.77
2023-05-14T09:06:47.850Z,80.18
2023-05-14T09:07:47.813Z,79.46
2023-05-14T09:08:47.800Z,78.86
2023-05-14T09:09:47.809Z,79.46
2023-05-14T09:10:47.800Z,79.06
2023-05-14T09:11:47.760Z,80.18
2023-05-14T09:12:47.740Z,80.34
2023-05-14T09:13:47.719Z,80.24
2023-05-14T09:14:47.721Z,80.34
2023-05-14T09:15:47.702Z,80.54
2023-05-14T09:16:47.783Z,79.73
2023-05-14T09:17:47.699Z,79.73
2023-05-14T09:18:47.766Z,78.31
2023-05-14T09:19:47.692Z,77.61
2023-05-14T09:20:47.655Z,78.38
2023-05-14T09:21:47.625Z,77.57
2023-05-14T09:22:47.612Z,77.47
2023-05-14T09:23:47.612Z,77.26
2023-05-14T09:24:47.592Z,76.97
2023-05-14T09:25:47.571Z,77.64
2023-05-14T09:26:47.619Z,78.04
2023-05-14T09:27:47.542Z,76.32
2023-05-14T09:28:47.542Z,74.50
2023-05-14T09:29:47.505Z,71.23
2023-05-14T09:30:48.001Z,68.84
2023-05-14T09:31:47.582Z,67.60
2023-05-14T09:32:47.525Z,68.80
2023-05-14T09:33:47.499Z,68.60
2023-05-14T09:34:47.440Z,68.80
2023-05-14T09:35:47.445Z,65.88
2023-05-14T09:36:47.423Z,67.60
2023-05-14T09:37:47.411Z,69.42
2023-05-14T09:38:47.406Z,67.60
2023-05-14T09:39:47.381Z,66.58
2023-05-14T09:40:47.351Z,65.88
2023-05-14T09:41:47.404Z,65.47
2023-05-14T09:42:47.316Z,66.28
2023-05-14T09:43:47.333Z,68.51
2023-05-14T09:44:47.321Z,68.40
2023-05-14T09:45:47.299Z,68.00
2023-05-14T09:46:47.395Z,67.09
2023-05-14T09:47:47.405Z,69.11
2023-05-14T09:48:47.271Z,68.17
2023-05-14T09:49:47.254Z,67.36
2023-05-14T09:50:47.250Z,67.76
2023-05-14T09:51:47.222Z,67.26
2023-05-14T09:52:47.194Z,66.15
2023-05-14T09:53:47.213Z,65.54
2023-05-14T09:54:47.199Z,66.15
2023-05-14T09:55:47.163Z,67.36
2023-05-14T09:56:47.128Z,66.86
2023-05-14T09:57:47.155Z,68.87
2023-05-14T09:58:47.227Z,68.67
2023-05-14T09:59:47.104Z,68.87
2023-05-14T10:00:47.208Z,68.77
2023-05-14T10:01:47.073Z,68.24
2023-05-14T10:02:47.192Z,67.13
2023-05-14T10:03:47.089Z,67.23
2023-05-14T10:04:47.133Z,67.73
2023-05-14T10:05:47.029Z,66.62
2023-05-14T10:06:47.030Z,66.52
2023-05-14T10:07:50.022Z,67.53
2023-05-14T10:08:46.999Z,66.32
2023-05-14T10:09:46.968Z,66.82
2023-05-14T10:10:46.961Z,67.43
2023-05-14T10:11:47.364Z,67.93
2023-05-14T10:12:47.006Z,68.33
2023-05-14T10:13:46.918Z,69.04
2023-05-14T10:14:46.914Z,68.71
2023-05-14T10:15:46.907Z,69.42
2023-05-14T10:16:46.952Z,68.71
2023-05-14T10:17:47.003Z,68.61
2023-05-14T10:18:46.924Z,67.47
2023-05-14T10:19:46.838Z,67.36
2023-05-14T10:20:46.825Z,66.25
2023-05-14T10:21:46.800Z,67.57
2023-05-14T10:22:46.825Z,67.97
2023-05-14T10:23:48.903Z,66.76
2023-05-14T10:24:46.773Z,66.73
2023-05-14T10:25:46.776Z,67.33
2023-05-14T10:26:46.791Z,66.63
2023-05-14T10:27:46.852Z,67.03
2023-05-14T10:28:46.718Z,66.73
2023-05-14T10:29:46.720Z,67.33
2023-05-14T10:30:46.818Z,67.94
2023-05-14T10:31:46.863Z,67.43
2023-05-14T10:32:46.683Z,67.63
2023-05-14T10:33:46.660Z,67.43
2023-05-14T10:34:46.636Z,67.84
2023-05-14T10:35:46.627Z,66.33
2023-05-14T10:36:46.627Z,65.82
2023-05-14T10:37:46.623Z,67.16
2023-05-14T10:38:46.595Z,68.14
2023-05-14T10:39:46.558Z,68.04
2023-05-14T10:40:46.559Z,69.65
2023-05-14T10:41:46.544Z,68.17
2023-05-14T10:42:46.524Z,69.68
2023-05-14T10:43:46.513Z,65.85
2023-05-14T10:44:46.505Z,66.19
2023-05-14T10:45:46.501Z,66.08
2023-05-14T10:46:46.549Z,66.29
2023-05-14T10:47:46.475Z,66.39
2023-05-14T10:48:46.458Z,67.50
2023-05-14T10:49:46.434Z,68.44
2023-05-14T10:50:46.467Z,67.13
2023-05-14T10:51:46.420Z,65.92
2023-05-14T10:52:46.487Z,62.99
2023-05-14T10:53:46.417Z,65.28
2023-05-14T10:54:46.416Z,67.90
2023-05-14T10:55:46.361Z,67.87
2023-05-14T10:56:46.329Z,67.07
2023-05-14T10:57:46.341Z,65.32
2023-05-14T10:58:46.317Z,67.33
2023-05-14T10:59:46.319Z,65.19
2023-05-14T11:00:46.308Z,65.49
2023-05-14T11:01:46.312Z,65.49
2023-05-14T11:02:46.291Z,66.06
2023-05-14T11:03:46.707Z,64.95
2023-05-14T11:04:46.255Z,64.35
2023-05-14T11:05:46.212Z,64.86
2023-05-14T11:06:46.212Z,64.42
2023-05-14T11:07:46.213Z,63.51
2023-05-14T11:08:46.190Z,64.32
2023-05-14T11:09:46.188Z,63.62
2023-05-14T11:10:46.152Z,63.18
2023-05-14T11:11:46.214Z,62.98
2023-05-14T11:12:46.140Z,63.79
2023-05-14T11:13:46.114Z,64.79
2023-05-14T11:14:46.147Z,65.30
2023-05-14T11:15:46.117Z,62.38
2023-05-14T11:16:46.149Z,62.18
2023-05-14T11:17:46.207Z,63.25
2023-05-14T11:18:46.137Z,64.66
2023-05-14T11:19:46.050Z,63.45
2023-05-14T11:20:46.037Z,63.22
2023-05-14T11:21:46.204Z,63.93
2023-05-14T11:22:46.004Z,62.62
2023-05-14T11:23:45.997Z,63.62
2023-05-14T11:24:45.975Z,63.82
2023-05-14T11:25:46.013Z,64.36
2023-05-14T11:26:45.942Z,63.15
2023-05-14T11:27:45.923Z,62.75
2023-05-14T11:28:45.941Z,62.35
2023-05-14T11:29:45.896Z,61.47
2023-05-14T11:30:46.022Z,63.28
2023-05-14T11:31:46.210Z,64.09
2023-05-14T11:32:45.993Z,62.78
2023-05-14T11:33:45.858Z,63.79
2023-05-14T11:34:45.838Z,63.48
2023-05-14T11:35:45.815Z,63.68
2023-05-14T11:36:45.797Z,63.99
2023-05-14T11:37:45.805Z,62.78
2023-05-14T11:38:45.784Z,62.78
2023-05-14T11:39:45.769Z,63.62
2023-05-14T11:40:45.753Z,62.61
2023-05-14T11:41:45.729Z,63.42
2023-05-14T11:42:45.740Z,63.62
2023-05-14T11:43:45.928Z,63.11
2023-05-14T11:44:45.723Z,64.32
2023-05-14T11:45:45.684Z,65.22
2023-05-14T11:46:45.682Z,65.73
2023-05-14T11:47:45.666Z,65.33
2023-05-14T11:48:45.643Z,64.05
2023-05-14T11:49:45.640Z,64.25
2023-05-14T11:50:45.620Z,63.34
2023-05-14T11:51:45.620Z,63.45
2023-05-14T11:52:45.590Z,63.34
2023-05-14T11:53:45.584Z,64.86
2023-05-14T11:54:45.666Z,65.96
2023-05-14T11:55:45.548Z,64.35
2023-05-14T11:56:45.559Z,64.05
2023-05-14T11:57:45.515Z,62.84
2023-05-14T11:58:45.508Z,62.64
2023-05-14T11:59:45.488Z,63.71
2023-05-14T12:00:45.478Z,63.51
2023-05-14T12:01:53.962Z,64.42
2023-05-14T12:02:45.523Z,64.22
2023-05-14T12:03:45.595Z,63.11
2023-05-14T12:04:45.466Z,62.48
2023-05-14T12:05:45.426Z,61.57
2023-05-14T12:06:45.415Z,61.98
2023-05-14T12:07:45.384Z,63.28
2023-05-14T12:08:45.376Z,61.77
2023-05-14T12:09:45.548Z,61.17
2023-05-14T12:10:45.369Z,59.56
2023-05-14T12:11:45.327Z,59.86
2023-05-14T12:12:45.313Z,60.24
2023-05-14T12:13:45.311Z,59.33
2023-05-14T12:14:45.296Z,58.93
2023-05-14T12:15:45.379Z,56.71
2023-05-14T12:16:45.288Z,60.11
2023-05-14T12:17:45.244Z,59.30
2023-05-14T12:18:45.381Z,59.10
2023-05-14T12:19:45.251Z,56.99
2023-05-14T12:20:45.238Z,55.79
2023-05-14T12:21:45.193Z,55.86
2023-05-14T12:22:45.187Z,56.26
2023-05-14T12:23:45.183Z,58.17
2023-05-14T12:24:45.177Z,59.95
2023-05-14T12:25:45.135Z,59.45
2023-05-14T12:26:45.140Z,57.94
2023-05-14T12:27:45.133Z,55.43
2023-05-14T12:28:45.107Z,56.54
2023-05-14T12:29:45.112Z,56.51
2023-05-14T12:30:45.096Z,58.22
2023-05-14T12:31:45.106Z,58.29
2023-05-14T12:32:45.112Z,58.59
2023-05-14T12:33:45.057Z,57.68
2023-05-14T12:34:45.044Z,56.51
2023-05-14T12:35:45.012Z,54.50
2023-05-14T12:36:44.997Z,55.23
2023-05-14T12:37:44.997Z,55.63
2023-05-14T12:38:44.993Z,54.63
2023-05-14T12:39:44.963Z,54.72
2023-05-14T12:40:44.950Z,57.04
2023-05-14T12:41:44.930Z,56.21
2023-05-14T12:42:44.923Z,56.30
2023-05-14T12:43:44.921Z,57.04
2023-05-14T12:44:44.938Z,55.71
2023-05-14T12:45:44.886Z,56.41
2023-05-14T12:46:44.922Z,56.51
2023-05-14T12:47:44.849Z,55.60
2023-05-14T12:48:44.857Z,56.01
2023-05-14T12:49:44.811Z,55.40
2023-05-14T12:50:44.819Z,56.01
2023-05-14T12:51:44.794Z,57.59
2023-05-14T12:52:44.772Z,56.48